sensor_id;sensor_type;location;lat;lon;timestamp;P1;durP1;ratioP1;P2;durP2;ratioP2
72439;SDS011;60446;50.752;4.352;2023-05-19T00:01:32;10.55;;;3.00;;
72439;SDS011;60446;50.752;4.352;2023-05-19T00:04:03;13.93;;;4.00;;
72439;SDS011;60446;50.752;4.352;2023-05-19T00:06:33;8.70;;;3.08;;
72439;SDS011;60446;50.752;4.352;2023-05-19T00:09:05;9.63;;;3.00;;
72439;SDS011;60446;50.752;4.352;2023-05-19T00:11:35;9.57;;;3.17;;
72439;SDS011;60446;50.752;4.352;2023-05-19T00:14:07;9.93;;;3.22;;
72439;SDS011;60446;50.752;4.352;2023-05-19T00:16:38;9.80;;;3.10;;
72439;SDS011;60446;50.752;4.352;2023-05-19T00:19:08;10.27;;;3.60;;
72439;SDS011;60446;50.752;4.352;2023-05-19T00:21:36;8.73;;;3.00;;
72439;SDS011;60446;50.752;4.352;2023-05-19T00:24:06;11.02;;;3.13;;
72439;SDS011;60446;50.752;4.352;2023-05-19T00:26:33;10.27;;;3.55;;
72439;SDS011;60446;50.752;4.352;2023-05-19T00:29:03;9.60;;;3.05;;
72439;SDS011;60446;50.752;4.352;2023-05-19T00:31:31;9.90;;;3.25;;
72439;SDS011;60446;50.752;4.352;2023-05-19T00:33:59;9.20;;;2.83;;
72439;SDS011;60446;50.752;4.352;2023-05-19T00:36:27;11.57;;;3.28;;
72439;SDS011;60446;50.752;4.352;2023-05-19T00:38:54;14.35;;;3.65;;
72439;SDS011;60446;50.752;4.352;2023-05-19T00:41:21;11.80;;;3.47;;
72439;SDS011;60446;50.752;4.352;2023-05-19T00:43:49;11.07;;;3.28;;
72439;SDS011;60446;50.752;4.352;2023-05-19T00:46:17;10.13;;;3.47;;
72439;SDS011;60446;50.752;4.352;2023-05-19T00:48:45;11.50;;;3.92;;
72439;SDS011;60446;50.752;4.352;2023-05-19T00:51:12;9.52;;;3.08;;
72439;SDS011;60446;50.752;4.352;2023-05-19T00:53:42;12.48;;;3.47;;
72439;SDS011;60446;50.752;4.352;2023-05-19T00:56:14;11.68;;;3.67;;
72439;SDS011;60446;50.752;4.352;2023-05-19T00:58:43;9.87;;;3.20;;
72439;SDS011;60446;50.752;4.352;2023-05-19T01:01:10;15.60;;;4.00;;
72439;SDS011;60446;50.752;4.352;2023-05-19T01:03:42;10.82;;;3.88;;
72439;SDS011;60446;50.752;4.352;2023-05-19T01:06:10;10.82;;;3.90;;
72439;SDS011;60446;50.752;4.352;2023-05-19T01:08:38;9.50;;;3.60;;
72439;SDS011;60446;50.752;4.352;2023-05-19T01:11:05;11.83;;;3.43;;
72439;SDS011;60446;50.752;4.352;2023-05-19T01:13:34;10.18;;;3.30;;
72439;SDS011;60446;50.752;4.352;2023-05-19T01:16:09;10.05;;;3.95;;
72439;SDS011;60446;50.752;4.352;2023-05-19T01:18:42;11.75;;;3.92;;
72439;SDS011;60446;50.752;4.352;2023-05-19T01:30:44;11.77;;;3.50;;
72439;SDS011;60446;50.752;4.352;2023-05-19T01:33:14;9.43;;;3.25;;
72439;SDS011;60446;50.752;4.352;2023-05-19T01:35:43;12.80;;;3.72;;
72439;SDS011;60446;50.752;4.352;2023-05-19T01:38:13;9.90;;;3.27;;
72439;SDS011;60446;50.752;4.352;2023-05-19T01:40:43;9.98;;;2.95;;
72439;SDS011;60446;50.752;4.352;2023-05-19T01:43:14;11.57;;;4.20;;
72439;SDS011;60446;50.752;4.352;2023-05-19T01:45:45;12.50;;;2.47;;
72439;SDS011;60446;50.752;4.352;2023-05-19T01:48:13;14.93;;;3.90;;
72439;SDS011;60446;50.752;4.352;2023-05-19T01:50:43;10.37;;;3.43;;
72439;SDS011;60446;50.752;4.352;2023-05-19T01:53:11;13.00;;;3.47;;
72439;SDS011;60446;50.752;4.352;2023-05-19T01:55:41;10.38;;;3.92;;
72439;SDS011;60446;50.752;4.352;2023-05-19T01:58:21;13.20;;;3.83;;
72439;SDS011;60446;50.752;4.352;2023-05-19T02:12:27;11.02;;;3.13;;
72439;SDS011;60446;50.752;4.352;2023-05-19T02:17:37;9.30;;;3.27;;
72439;SDS011;60446;50.752;4.352;2023-05-19T02:20:08;8.65;;;3.10;;
72439;SDS011;60446;50.752;4.352;2023-05-19T02:22:37;11.65;;;3.50;;
72439;SDS011;60446;50.752;4.352;2023-05-19T02:25:07;10.73;;;3.63;;
72439;SDS011;60446;50.752;4.352;2023-05-19T02:27:36;11.85;;;3.53;;
72439;SDS011;60446;50.752;4.352;2023-05-19T02:30:05;16.23;;;3.67;;
72439;SDS011;60446;50.752;4.352;2023-05-19T02:32:35;10.27;;;3.25;;
72439;SDS011;60446;50.752;4.352;2023-05-19T02:35:02;10.90;;;3.80;;
72439;SDS011;60446;50.752;4.352;2023-05-19T02:37:30;13.43;;;3.88;;
72439;SDS011;60446;50.752;4.352;2023-05-19T02:39:57;11.70;;;3.83;;
72439;SDS011;60446;50.752;4.352;2023-05-19T02:42:25;16.60;;;3.83;;
72439;SDS011;60446;50.752;4.352;2023-05-19T02:44:53;14.20;;;3.92;;
72439;SDS011;60446;50.752;4.352;2023-05-19T02:47:20;17.67;;;4.60;;
72439;SDS011;60446;50.752;4.352;2023-05-19T02:49:47;10.95;;;3.72;;
72439;SDS011;60446;50.752;4.352;2023-05-19T02:52:14;11.90;;;3.25;;
72439;SDS011;60446;50.752;4.352;2023-05-19T02:54:42;12.13;;;3.83;;
72439;SDS011;60446;50.752;4.352;2023-05-19T02:57:09;10.18;;;4.05;;
72439;SDS011;60446;50.752;4.352;2023-05-19T02:59:36;11.63;;;3.03;;
72439;SDS011;60446;50.752;4.352;2023-05-19T03:02:03;15.00;;;3.92;;
72439;SDS011;60446;50.752;4.352;2023-05-19T03:04:31;12.25;;;3.75;;
72439;SDS011;60446;50.752;4.352;2023-05-19T03:06:58;10.53;;;3.17;;
72439;SDS011;60446;50.752;4.352;2023-05-19T03:09:25;10.70;;;3.13;;
72439;SDS011;60446;50.752;4.352;2023-05-19T03:11:52;13.20;;;4.10;;
72439;SDS011;60446;50.752;4.352;2023-05-19T03:14:19;12.50;;;3.42;;
72439;SDS011;60446;50.752;4.352;2023-05-19T03:16:49;14.32;;;3.88;;
72439;SDS011;60446;50.752;4.352;2023-05-19T03:19:16;15.27;;;3.63;;
72439;SDS011;60446;50.752;4.352;2023-05-19T03:21:44;13.90;;;3.55;;
72439;SDS011;60446;50.752;4.352;2023-05-19T03:24:11;16.85;;;4.65;;
72439;SDS011;60446;50.752;4.352;2023-05-19T03:26:39;12.18;;;3.42;;
72439;SDS011;60446;50.752;4.352;2023-05-19T03:29:07;12.98;;;3.90;;
72439;SDS011;60446;50.752;4.352;2023-05-19T03:31:35;14.00;;;4.17;;
72439;SDS011;60446;50.752;4.352;2023-05-19T03:34:03;15.57;;;4.22;;
72439;SDS011;60446;50.752;4.352;2023-05-19T03:36:30;19.25;;;5.55;;
72439;SDS011;60446;50.752;4.352;2023-05-19T03:38:59;16.10;;;4.20;;
72439;SDS011;60446;50.752;4.352;2023-05-19T03:41:26;15.38;;;5.40;;
72439;SDS011;60446;50.752;4.352;2023-05-19T03:43:54;13.10;;;4.37;;
72439;SDS011;60446;50.752;4.352;2023-05-19T03:46:21;16.98;;;4.82;;
72439;SDS011;60446;50.752;4.352;2023-05-19T03:49:15;14.57;;;5.30;;
72439;SDS011;60446;50.752;4.352;2023-05-19T03:52:00;13.10;;;4.03;;
72439;SDS011;60446;50.752;4.352;2023-05-19T03:54:54;19.27;;;4.43;;
72439;SDS011;60446;50.752;4.352;2023-05-19T03:57:23;14.97;;;4.63;;
72439;SDS011;60446;50.752;4.352;2023-05-19T03:59:51;13.60;;;4.18;;
72439;SDS011;60446;50.752;4.352;2023-05-19T04:02:19;19.58;;;5.78;;
72439;SDS011;60446;50.752;4.352;2023-05-19T04:04:47;14.52;;;4.47;;
72439;SDS011;60446;50.752;4.352;2023-05-19T04:07:16;12.75;;;4.68;;
72439;SDS011;60446;50.752;4.352;2023-05-19T04:09:43;15.57;;;4.13;;
72439;SDS011;60446;50.752;4.352;2023-05-19T04:12:11;13.02;;;4.32;;
72439;SDS011;60446;50.752;4.352;2023-05-19T04:14:38;15.60;;;4.82;;
72439;SDS011;60446;50.752;4.352;2023-05-19T04:17:05;18.25;;;4.78;;
72439;SDS011;60446;50.752;4.352;2023-05-19T04:19:32;14.18;;;4.18;;
72439;SDS011;60446;50.752;4.352;2023-05-19T04:22:00;14.23;;;4.60;;
72439;SDS011;60446;50.752;4.352;2023-05-19T04:24:28;15.95;;;4.43;;
72439;SDS011;60446;50.752;4.352;2023-05-19T04:26:55;15.52;;;5.30;;
72439;SDS011;60446;50.752;4.352;2023-05-19T04:29:22;16.08;;;5.00;;
72439;SDS011;60446;50.752;4.352;2023-05-19T04:31:51;16.60;;;4.82;;
72439;SDS011;60446;50.752;4.352;2023-05-19T04:34:19;13.13;;;4.27;;
72439;SDS011;60446;50.752;4.352;2023-05-19T04:36:46;15.57;;;4.85;;
72439;SDS011;60446;50.752;4.352;2023-05-19T04:39:18;14.23;;;5.38;;
72439;SDS011;60446;50.752;4.352;2023-05-19T04:41:47;13.80;;;4.00;;
72439;SDS011;60446;50.752;4.352;2023-05-19T04:44:14;15.65;;;4.47;;
72439;SDS011;60446;50.752;4.352;2023-05-19T04:46:46;15.53;;;4.80;;
72439;SDS011;60446;50.752;4.352;2023-05-19T04:49:13;12.85;;;5.25;;
72439;SDS011;60446;50.752;4.352;2023-05-19T04:51:41;13.98;;;5.50;;
72439;SDS011;60446;50.752;4.352;2023-05-19T04:54:08;18.08;;;5.28;;
72439;SDS011;60446;50.752;4.352;2023-05-19T04:56:35;17.67;;;4.93;;
72439;SDS011;60446;50.752;4.352;2023-05-19T04:59:03;12.53;;;3.87;;
72439;SDS011;60446;50.752;4.352;2023-05-19T05:01:32;15.70;;;5.30;;
72439;SDS011;60446;50.752;4.352;2023-05-19T05:04:00;17.00;;;5.03;;
72439;SDS011;60446;50.752;4.352;2023-05-19T05:06:29;14.52;;;5.07;;
72439;SDS011;60446;50.752;4.352;2023-05-19T05:08:58;12.68;;;5.00;;
72439;SDS011;60446;50.752;4.352;2023-05-19T05:11:33;16.07;;;5.20;;
72439;SDS011;60446;50.752;4.352;2023-05-19T05:14:04;14.50;;;5.30;;
72439;SDS011;60446;50.752;4.352;2023-05-19T05:16:31;17.65;;;5.80;;
72439;SDS011;60446;50.752;4.352;2023-05-19T05:19:00;15.05;;;4.53;;
72439;SDS011;60446;50.752;4.352;2023-05-19T05:21:30;13.55;;;4.60;;
72439;SDS011;60446;50.752;4.352;2023-05-19T05:23:58;16.60;;;5.50;;
72439;SDS011;60446;50.752;4.352;2023-05-19T05:26:29;14.60;;;5.53;;
72439;SDS011;60446;50.752;4.352;2023-05-19T05:28:59;15.40;;;5.18;;
72439;SDS011;60446;50.752;4.352;2023-05-19T05:31:28;12.43;;;4.65;;
72439;SDS011;60446;50.752;4.352;2023-05-19T05:33:57;23.65;;;5.57;;
72439;SDS011;60446;50.752;4.352;2023-05-19T05:36:29;16.30;;;4.90;;
72439;SDS011;60446;50.752;4.352;2023-05-19T05:39:00;16.15;;;5.07;;
72439;SDS011;60446;50.752;4.352;2023-05-19T05:41:28;14.02;;;4.95;;
72439;SDS011;60446;50.752;4.352;2023-05-19T05:44:06;17.55;;;4.95;;
72439;SDS011;60446;50.752;4.352;2023-05-19T05:46:33;18.40;;;5.20;;
72439;SDS011;60446;50.752;4.352;2023-05-19T05:49:01;17.07;;;5.63;;
72439;SDS011;60446;50.752;4.352;2023-05-19T05:51:31;14.48;;;4.57;;
72439;SDS011;60446;50.752;4.352;2023-05-19T05:55:04;16.77;;;5.03;;
72439;SDS011;60446;50.752;4.352;2023-05-19T05:57:42;15.23;;;4.47;;
72439;SDS011;60446;50.752;4.352;2023-05-19T06:00:12;15.18;;;5.55;;
72439;SDS011;60446;50.752;4.352;2023-05-19T06:02:51;15.03;;;5.03;;
72439;SDS011;60446;50.752;4.352;2023-05-19T06:05:19;18.40;;;5.53;;
72439;SDS011;60446;50.752;4.352;2023-05-19T06:07:49;21.38;;;5.60;;
72439;SDS011;60446;50.752;4.352;2023-05-19T06:10:20;16.80;;;5.38;;
72439;SDS011;60446;50.752;4.352;2023-05-19T06:12:49;15.35;;;5.25;;
72439;SDS011;60446;50.752;4.352;2023-05-19T06:15:16;14.63;;;5.00;;
72439;SDS011;60446;50.752;4.352;2023-05-19T06:18:04;18.85;;;4.32;;
72439;SDS011;60446;50.752;4.352;2023-05-19T06:20:31;20.63;;;5.85;;
72439;SDS011;60446;50.752;4.352;2023-05-19T06:23:02;16.05;;;4.82;;
72439;SDS011;60446;50.752;4.352;2023-05-19T06:25:29;11.68;;;4.53;;
72439;SDS011;60446;50.752;4.352;2023-05-19T06:27:57;14.20;;;5.30;;
72439;SDS011;60446;50.752;4.352;2023-05-19T06:30:38;14.13;;;4.75;;
72439;SDS011;60446;50.752;4.352;2023-05-19T06:33:22;24.60;;;5.95;;
72439;SDS011;60446;50.752;4.352;2023-05-19T06:35:54;15.57;;;5.13;;
72439;SDS011;60446;50.752;4.352;2023-05-19T06:38:24;16.05;;;5.15;;
72439;SDS011;60446;50.752;4.352;2023-05-19T06:40:57;14.27;;;4.67;;
72439;SDS011;60446;50.752;4.352;2023-05-19T06:43:27;16.50;;;5.53;;
72439;SDS011;60446;50.752;4.352;2023-05-19T06:46:03;14.48;;;4.78;;
72439;SDS011;60446;50.752;4.352;2023-05-19T06:48:44;13.60;;;5.00;;
72439;SDS011;60446;50.752;4.352;2023-05-19T06:51:37;15.88;;;5.40;;
72439;SDS011;60446;50.752;4.352;2023-05-19T06:54:26;17.20;;;5.00;;
72439;SDS011;60446;50.752;4.352;2023-05-19T06:56:56;17.02;;;5.15;;
72439;SDS011;60446;50.752;4.352;2023-05-19T06:59:27;13.60;;;4.97;;
72439;SDS011;60446;50.752;4.352;2023-05-19T07:02:29;13.85;;;4.22;;
72439;SDS011;60446;50.752;4.352;2023-05-19T07:05:01;13.10;;;4.95;;
72439;SDS011;60446;50.752;4.352;2023-05-19T07:08:04;16.27;;;5.07;;
72439;SDS011;60446;50.752;4.352;2023-05-19T07:10:35;12.48;;;4.75;;
72439;SDS011;60446;50.752;4.352;2023-05-19T07:13:07;16.80;;;5.65;;
72439;SDS011;60446;50.752;4.352;2023-05-19T07:15:35;14.57;;;4.68;;
72439;SDS011;60446;50.752;4.352;2023-05-19T07:18:02;13.38;;;4.28;;
72439;SDS011;60446;50.752;4.352;2023-05-19T07:20:29;13.03;;;5.10;;
72439;SDS011;60446;50.752;4.352;2023-05-19T07:22:59;12.75;;;4.05;;
72439;SDS011;60446;50.752;4.352;2023-05-19T07:25:44;13.85;;;5.25;;
72439;SDS011;60446;50.752;4.352;2023-05-19T07:28:26;12.70;;;4.55;;
72439;SDS011;60446;50.752;4.352;2023-05-19T07:31:07;14.00;;;5.22;;
72439;SDS011;60446;50.752;4.352;2023-05-19T07:34:23;12.77;;;4.70;;
72439;SDS011;60446;50.752;4.352;2023-05-19T07:36:51;16.85;;;4.72;;
72439;SDS011;60446;50.752;4.352;2023-05-19T07:39:18;13.27;;;4.25;;
72439;SDS011;60446;50.752;4.352;2023-05-19T07:41:45;15.32;;;4.78;;
72439;SDS011;60446;50.752;4.352;2023-05-19T07:44:18;15.80;;;5.47;;
72439;SDS011;60446;50.752;4.352;2023-05-19T07:46:45;12.93;;;4.40;;
72439;SDS011;60446;50.752;4.352;2023-05-19T07:49:13;16.05;;;4.95;;
72439;SDS011;60446;50.752;4.352;2023-05-19T07:51:40;17.40;;;4.35;;
72439;SDS011;60446;50.752;4.352;2023-05-19T07:54:10;15.52;;;4.47;;
72439;SDS011;60446;50.752;4.352;2023-05-19T07:56:40;11.02;;;3.75;;
72439;SDS011;60446;50.752;4.352;2023-05-19T07:59:12;15.27;;;4.33;;
72439;SDS011;60446;50.752;4.352;2023-05-19T08:01:40;10.68;;;4.40;;
72439;SDS011;60446;50.752;4.352;2023-05-19T08:04:08;14.85;;;4.57;;
72439;SDS011;60446;50.752;4.352;2023-05-19T08:06:38;10.43;;;3.40;;
72439;SDS011;60446;50.752;4.352;2023-05-19T08:09:08;12.95;;;3.72;;
72439;SDS011;60446;50.752;4.352;2023-05-19T08:11:36;10.07;;;3.43;;
72439;SDS011;60446;50.752;4.352;2023-05-19T08:14:03;11.00;;;3.97;;
72439;SDS011;60446;50.752;4.352;2023-05-19T08:16:30;10.73;;;3.63;;
72439;SDS011;60446;50.752;4.352;2023-05-19T08:18:58;11.13;;;3.97;;
72439;SDS011;60446;50.752;4.352;2023-05-19T08:21:28;11.35;;;3.83;;
72439;SDS011;60446;50.752;4.352;2023-05-19T08:23:55;9.10;;;3.13;;
72439;SDS011;60446;50.752;4.352;2023-05-19T08:26:22;11.77;;;3.10;;
72439;SDS011;60446;50.752;4.352;2023-05-19T08:28:52;12.02;;;3.38;;
72439;SDS011;60446;50.752;4.352;2023-05-19T08:31:21;13.30;;;3.58;;
72439;SDS011;60446;50.752;4.352;2023-05-19T08:33:51;11.55;;;3.25;;
72439;SDS011;60446;50.752;4.352;2023-05-19T08:36:25;11.93;;;3.17;;
72439;SDS011;60446;50.752;4.352;2023-05-19T08:39:24;9.63;;;2.60;;
72439;SDS011;60446;50.752;4.352;2023-05-19T08:42:05;7.15;;;2.53;;
72439;SDS011;60446;50.752;4.352;2023-05-19T08:44:39;8.00;;;2.58;;
72439;SDS011;60446;50.752;4.352;2023-05-19T08:47:15;8.68;;;2.83;;
72439;SDS011;60446;50.752;4.352;2023-05-19T08:50:04;6.50;;;2.27;;
72439;SDS011;60446;50.752;4.352;2023-05-19T08:52:40;9.43;;;2.38;;
72439;SDS011;60446;50.752;4.352;2023-05-19T08:55:42;9.18;;;2.30;;
72439;SDS011;60446;50.752;4.352;2023-05-19T08:58:26;8.52;;;2.70;;
72439;SDS011;60446;50.752;4.352;2023-05-19T09:00:56;8.20;;;1.98;;
72439;SDS011;60446;50.752;4.352;2023-05-19T09:03:34;8.87;;;2.90;;
72439;SDS011;60446;50.752;4.352;2023-05-19T09:06:08;6.38;;;2.20;;
72439;SDS011;60446;50.752;4.352;2023-05-19T09:08:42;8.75;;;2.08;;
72439;SDS011;60446;50.752;4.352;2023-05-19T09:11:12;7.25;;;2.22;;
72439;SDS011;60446;50.752;4.352;2023-05-19T09:13:42;6.90;;;2.45;;
72439;SDS011;60446;50.752;4.352;2023-05-19T09:16:10;6.27;;;1.90;;
72439;SDS011;60446;50.752;4.352;2023-05-19T09:18:48;5.75;;;1.88;;
72439;SDS011;60446;50.752;4.352;2023-05-19T09:21:32;6.93;;;1.90;;
72439;SDS011;60446;50.752;4.352;2023-05-19T09:24:14;5.93;;;2.00;;
72439;SDS011;60446;50.752;4.352;2023-05-19T09:26:43;7.80;;;2.08;;
72439;SDS011;60446;50.752;4.352;2023-05-19T09:29:17;7.20;;;1.87;;
72439;SDS011;60446;50.752;4.352;2023-05-19T09:31:49;7.90;;;2.10;;
72439;SDS011;60446;50.752;4.352;2023-05-19T09:34:22;8.38;;;2.05;;
72439;SDS011;60446;50.752;4.352;2023-05-19T09:36:53;8.38;;;2.25;;
72439;SDS011;60446;50.752;4.352;2023-05-19T09:39:27;6.57;;;2.08;;
72439;SDS011;60446;50.752;4.352;2023-05-19T09:41:56;7.37;;;2.10;;
72439;SDS011;60446;50.752;4.352;2023-05-19T09:44:24;5.82;;;1.67;;
72439;SDS011;60446;50.752;4.352;2023-05-19T09:47:11;6.97;;;1.63;;
72439;SDS011;60446;50.752;4.352;2023-05-19T09:49:47;7.40;;;2.00;;
72439;SDS011;60446;50.752;4.352;2023-05-19T09:52:15;6.50;;;1.70;;
72439;SDS011;60446;50.752;4.352;2023-05-19T09:54:46;5.00;;;1.80;;
72439;SDS011;60446;50.752;4.352;2023-05-19T09:57:23;6.47;;;1.98;;
72439;SDS011;60446;50.752;4.352;2023-05-19T10:00:05;6.88;;;1.95;;
72439;SDS011;60446;50.752;4.352;2023-05-19T10:02:50;7.55;;;1.75;;
72439;SDS011;60446;50.752;4.352;2023-05-19T10:05:18;6.45;;;2.00;;
72439;SDS011;60446;50.752;4.352;2023-05-19T10:07:50;6.13;;;1.47;;
72439;SDS011;60446;50.752;4.352;2023-05-19T10:10:21;7.93;;;1.95;;
72439;SDS011;60446;50.752;4.352;2023-05-19T10:13:18;6.72;;;1.67;;
72439;SDS011;60446;50.752;4.352;2023-05-19T10:15:49;7.22;;;1.88;;
72439;SDS011;60446;50.752;4.352;2023-05-19T10:18:25;8.00;;;2.50;;
72439;SDS011;60446;50.752;4.352;2023-05-19T10:20:57;6.13;;;2.10;;
72439;SDS011;60446;50.752;4.352;2023-05-19T10:23:26;7.28;;;1.83;;
72439;SDS011;60446;50.752;4.352;2023-05-19T10:25:56;6.72;;;2.10;;
72439;SDS011;60446;50.752;4.352;2023-05-19T10:28:30;7.20;;;2.33;;
72439;SDS011;60446;50.752;4.352;2023-05-19T10:31:08;7.45;;;2.25;;
72439;SDS011;60446;50.752;4.352;2023-05-19T10:33:55;6.93;;;2.23;;
72439;SDS011;60446;50.752;4.352;2023-05-19T10:36:52;10.15;;;2.08;;
72439;SDS011;60446;50.752;4.352;2023-05-19T10:39:45;6.55;;;2.13;;
72439;SDS011;60446;50.752;4.352;2023-05-19T10:42:32;6.90;;;2.40;;
72439;SDS011;60446;50.752;4.352;2023-05-19T10:45:40;7.90;;;2.30;;
72439;SDS011;60446;50.752;4.352;2023-05-19T10:48:20;6.77;;;2.20;;
72439;SDS011;60446;50.752;4.352;2023-05-19T10:51:04;9.95;;;2.92;;
72439;SDS011;60446;50.752;4.352;2023-05-19T10:53:40;6.97;;;2.60;;
72439;SDS011;60446;50.752;4.352;2023-05-19T10:56:27;7.95;;;3.10;;
72439;SDS011;60446;50.752;4.352;2023-05-19T10:59:28;9.15;;;2.75;;
72439;SDS011;60446;50.752;4.352;2023-05-19T11:02:06;7.33;;;2.80;;
72439;SDS011;60446;50.752;4.352;2023-05-19T11:04:38;9.43;;;3.08;;
72439;SDS011;60446;50.752;4.352;2023-05-19T11:07:17;10.75;;;3.13;;
72439;SDS011;60446;50.752;4.352;2023-05-19T11:09:50;8.68;;;3.03;;
72439;SDS011;60446;50.752;4.352;2023-05-19T11:12:18;11.35;;;3.03;;
72439;SDS011;60446;50.752;4.352;2023-05-19T11:14:53;9.30;;;3.40;;
72439;SDS011;60446;50.752;4.352;2023-05-19T11:17:23;8.73;;;3.13;;
72439;SDS011;60446;50.752;4.352;2023-05-19T11:19:54;9.05;;;3.47;;
72439;SDS011;60446;50.752;4.352;2023-05-19T11:22:27;9.70;;;3.70;;
72439;SDS011;60446;50.752;4.352;2023-05-19T11:24:55;10.30;;;3.42;;
72439;SDS011;60446;50.752;4.352;2023-05-19T11:27:28;7.60;;;2.93;;
72439;SDS011;60446;50.752;4.352;2023-05-19T11:30:00;11.25;;;3.78;;
72439;SDS011;60446;50.752;4.352;2023-05-19T11:32:37;8.48;;;3.90;;
72439;SDS011;60446;50.752;4.352;2023-05-19T11:35:10;9.02;;;3.88;;
72439;SDS011;60446;50.752;4.352;2023-05-19T11:37:41;9.27;;;3.80;;
72439;SDS011;60446;50.752;4.352;2023-05-19T11:40:08;7.30;;;3.50;;
72439;SDS011;60446;50.752;4.352;2023-05-19T11:42:37;8.85;;;4.05;;
72439;SDS011;60446;50.752;4.352;2023-05-19T11:45:05;9.35;;;3.97;;
72439;SDS011;60446;50.752;4.352;2023-05-19T11:47:33;8.73;;;3.92;;
72439;SDS011;60446;50.752;4.352;2023-05-19T11:50:24;10.20;;;3.83;;
72439;SDS011;60446;50.752;4.352;2023-05-19T11:52:52;11.00;;;3.90;;
72439;SDS011;60446;50.752;4.352;2023-05-19T11:55:20;10.32;;;3.92;;
72439;SDS011;60446;50.752;4.352;2023-05-19T11:58:01;9.07;;;4.18;;
72439;SDS011;60446;50.752;4.352;2023-05-19T12:00:34;8.30;;;4.03;;
72439;SDS011;60446;50.752;4.352;2023-05-19T12:03:07;9.00;;;3.60;;
72439;SDS011;60446;50.752;4.352;2023-05-19T12:05:46;9.83;;;3.63;;
72439;SDS011;60446;50.752;4.352;2023-05-19T12:08:23;11.18;;;3.53;;
72439;SDS011;60446;50.752;4.352;2023-05-19T12:10:54;9.05;;;3.42;;
72439;SDS011;60446;50.752;4.352;2023-05-19T12:13:22;8.43;;;3.83;;
72439;SDS011;60446;50.752;4.352;2023-05-19T12:16:00;8.15;;;3.38;;
72439;SDS011;60446;50.752;4.352;2023-05-19T12:18:38;7.60;;;2.90;;
72439;SDS011;60446;50.752;4.352;2023-05-19T12:21:06;8.13;;;2.88;;
72439;SDS011;60446;50.752;4.352;2023-05-19T12:23:37;9.15;;;2.90;;
72439;SDS011;60446;50.752;4.352;2023-05-19T12:26:09;7.47;;;3.17;;
72439;SDS011;60446;50.752;4.352;2023-05-19T12:28:37;7.47;;;3.63;;
72439;SDS011;60446;50.752;4.352;2023-05-19T12:31:07;7.53;;;2.73;;
72439;SDS011;60446;50.752;4.352;2023-05-19T12:33:34;9.27;;;2.72;;
72439;SDS011;60446;50.752;4.352;2023-05-19T12:36:08;10.82;;;3.72;;
72439;SDS011;60446;50.752;4.352;2023-05-19T12:38:38;7.78;;;2.92;;
72439;SDS011;60446;50.752;4.352;2023-05-19T12:41:09;7.53;;;2.92;;
72439;SDS011;60446;50.752;4.352;2023-05-19T12:43:40;6.33;;;2.50;;
72439;SDS011;60446;50.752;4.352;2023-05-19T12:46:17;11.95;;;3.22;;
72439;SDS011;60446;50.752;4.352;2023-05-19T12:48:45;7.35;;;3.03;;
72439;SDS011;60446;50.752;4.352;2023-05-19T12:51:16;8.32;;;3.13;;
72439;SDS011;60446;50.752;4.352;2023-05-19T12:53:48;8.52;;;3.78;;
72439;SDS011;60446;50.752;4.352;2023-05-19T12:56:16;7.13;;;2.70;;
72439;SDS011;60446;50.752;4.352;2023-05-19T12:58:43;10.15;;;2.83;;
72439;SDS011;60446;50.752;4.352;2023-05-19T13:01:14;10.02;;;3.42;;
72439;SDS011;60446;50.752;4.352;2023-05-19T13:03:44;8.32;;;3.30;;
72439;SDS011;60446;50.752;4.352;2023-05-19T13:06:12;7.95;;;3.95;;
72439;SDS011;60446;50.752;4.352;2023-05-19T13:08:40;8.70;;;2.80;;
72439;SDS011;60446;50.752;4.352;2023-05-19T13:11:07;6.90;;;2.58;;
72439;SDS011;60446;50.752;4.352;2023-05-19T13:13:34;6.22;;;2.20;;
72439;SDS011;60446;50.752;4.352;2023-05-19T13:16:01;7.90;;;2.13;;
72439;SDS011;60446;50.752;4.352;2023-05-19T13:18:28;9.10;;;1.90;;
72439;SDS011;60446;50.752;4.352;2023-05-19T13:20:57;5.63;;;1.70;;
72439;SDS011;60446;50.752;4.352;2023-05-19T13:23:25;8.43;;;2.40;;
72439;SDS011;60446;50.752;4.352;2023-05-19T13:25:52;6.28;;;2.03;;
72439;SDS011;60446;50.752;4.352;2023-05-19T13:28:19;6.10;;;2.28;;
72439;SDS011;60446;50.752;4.352;2023-05-19T13:30:46;6.70;;;2.15;;
72439;SDS011;60446;50.752;4.352;2023-05-19T13:33:15;7.90;;;2.70;;
72439;SDS011;60446;50.752;4.352;2023-05-19T13:35:42;7.53;;;2.80;;
72439;SDS011;60446;50.752;4.352;2023-05-19T13:38:09;7.93;;;2.45;;
72439;SDS011;60446;50.752;4.352;2023-05-19T13:40:37;8.05;;;2.40;;
72439;SDS011;60446;50.752;4.352;2023-05-19T13:43:05;7.50;;;2.70;;
72439;SDS011;60446;50.752;4.352;2023-05-19T13:45:34;8.07;;;2.50;;
72439;SDS011;60446;50.752;4.352;2023-05-19T13:48:01;6.15;;;2.58;;
72439;SDS011;60446;50.752;4.352;2023-05-19T13:50:28;9.02;;;2.55;;
72439;SDS011;60446;50.752;4.352;2023-05-19T13:52:55;10.75;;;2.70;;
72439;SDS011;60446;50.752;4.352;2023-05-19T13:55:23;7.95;;;2.80;;
72439;SDS011;60446;50.752;4.352;2023-05-19T13:57:52;5.20;;;2.20;;
72439;SDS011;60446;50.752;4.352;2023-05-19T14:00:19;7.38;;;2.28;;
72439;SDS011;60446;50.752;4.352;2023-05-19T14:02:47;7.45;;;2.65;;
72439;SDS011;60446;50.752;4.352;2023-05-19T14:05:14;6.90;;;2.10;;
72439;SDS011;60446;50.752;4.352;2023-05-19T14:07:41;8.40;;;2.45;;
72439;SDS011;60446;50.752;4.352;2023-05-19T14:10:10;6.83;;;2.23;;
72439;SDS011;60446;50.752;4.352;2023-05-19T14:12:37;7.38;;;2.17;;
72439;SDS011;60446;50.752;4.352;2023-05-19T14:15:23;7.47;;;2.10;;
72439;SDS011;60446;50.752;4.352;2023-05-19T14:17:52;6.45;;;1.85;;
72439;SDS011;60446;50.752;4.352;2023-05-19T14:20:19;11.95;;;2.70;;
72439;SDS011;60446;50.752;4.352;2023-05-19T14:22:47;9.27;;;2.50;;
72439;SDS011;60446;50.752;4.352;2023-05-19T14:25:14;8.55;;;2.30;;
72439;SDS011;60446;50.752;4.352;2023-05-19T14:27:41;7.88;;;2.58;;
72439;SDS011;60446;50.752;4.352;2023-05-19T14:30:08;11.35;;;2.75;;
72439;SDS011;60446;50.752;4.352;2023-05-19T14:32:36;6.88;;;2.28;;
72439;SDS011;60446;50.752;4.352;2023-05-19T14:35:03;5.60;;;1.80;;
72439;SDS011;60446;50.752;4.352;2023-05-19T14:37:31;6.28;;;2.10;;
72439;SDS011;60446;50.752;4.352;2023-05-19T14:39:58;6.57;;;2.13;;
72439;SDS011;60446;50.752;4.352;2023-05-19T14:42:25;6.43;;;2.10;;
72439;SDS011;60446;50.752;4.352;2023-05-19T14:44:53;7.00;;;2.17;;
72439;SDS011;60446;50.752;4.352;2023-05-19T14:47:20;10.43;;;2.07;;
72439;SDS011;60446;50.752;4.352;2023-05-19T14:49:47;7.38;;;2.03;;
72439;SDS011;60446;50.752;4.352;2023-05-19T14:52:14;6.97;;;2.00;;
72439;SDS011;60446;50.752;4.352;2023-05-19T14:54:43;8.38;;;2.00;;
72439;SDS011;60446;50.752;4.352;2023-05-19T14:57:10;6.50;;;2.17;;
72439;SDS011;60446;50.752;4.352;2023-05-19T14:59:37;6.57;;;1.73;;
72439;SDS011;60446;50.752;4.352;2023-05-19T15:02:04;7.13;;;1.90;;
72439;SDS011;60446;50.752;4.352;2023-05-19T15:04:32;6.85;;;2.00;;
72439;SDS011;60446;50.752;4.352;2023-05-19T15:06:59;6.85;;;2.08;;
72439;SDS011;60446;50.752;4.352;2023-05-19T15:09:29;7.15;;;2.55;;
72439;SDS011;60446;50.752;4.352;2023-05-19T15:11:57;7.57;;;2.00;;
72439;SDS011;60446;50.752;4.352;2023-05-19T15:14:26;6.55;;;2.00;;
72439;SDS011;60446;50.752;4.352;2023-05-19T15:16:56;6.47;;;1.92;;
72439;SDS011;60446;50.752;4.352;2023-05-19T15:19:24;9.80;;;2.75;;
72439;SDS011;60446;50.752;4.352;2023-05-19T15:21:51;5.32;;;2.28;;
72439;SDS011;60446;50.752;4.352;2023-05-19T15:24:18;6.50;;;2.10;;
72439;SDS011;60446;50.752;4.352;2023-05-19T15:26:46;5.80;;;1.95;;
72439;SDS011;60446;50.752;4.352;2023-05-19T15:29:13;6.75;;;2.40;;
72439;SDS011;60446;50.752;4.352;2023-05-19T15:31:40;7.53;;;2.17;;